createdAt,value
2018-09-13T00:01:07.803Z,65.161133
2018-09-13T00:02:23.841Z,66.290283
2018-09-13T00:03:58.701Z,67.29126
2018-09-13T00:05:14.669Z,67.425537
2018-09-13T00:06:48.633Z,67.29126
2018-09-13T00:08:04.540Z,67.694092
2018-09-13T00:09:39.477Z,68.621826
2018-09-13T00:10:55.541Z,68.023682
2018-09-13T00:12:11.688Z,67.993164
2018-09-13T00:13:27.642Z,68.591309
2018-09-13T00:14:43.651Z,69.189453
2018-09-13T00:15:59.614Z,67.822266
2018-09-13T00:17:33.455Z,68.792725
2018-09-13T00:18:49.436Z,69.891357
2018-09-13T00:20:05.392Z,71.026611
2018-09-13T00:21:39.493Z,70.623779
2018-09-13T00:22:55.624Z,72.662354
2018-09-13T00:24:30.588Z,73.223877
2018-09-13T00:25:46.693Z,74.328613
2018-09-13T00:27:02.717Z,74.963379
2018-09-13T00:28:18.622Z,75.061035
2018-09-13T00:29:34.670Z,75.396729
2018-09-13T00:30:50.625Z,75.598145
2018-09-13T00:32:06.587Z,76.098633
2018-09-13T00:33:22.523Z,75.701904
2018-09-13T00:34:38.482Z,75.500488
2018-09-13T00:35:54.570Z,76.000977
2018-09-13T00:37:10.597Z,76.037598
2018-09-13T00:38:26.500Z,76.434326
2018-09-13T00:39:42.475Z,78.643799
2018-09-13T00:40:58.492Z,78.277588
2018-09-13T00:42:14.458Z,78.57666
2018-09-13T00:43:30.479Z,78.57666
2018-09-13T00:44:46.486Z,78.479004
2018-09-13T00:46:02.573Z,78.338623
2018-09-13T00:47:18.642Z,78.942871
2018-09-13T00:48:34.603Z,78.741455
2018-09-13T00:49:50.605Z,79.779053
2018-09-13T00:51:25.485Z,80.682373
2018-09-13T00:52:41.569Z,80.181885
2018-09-13T00:53:57.624Z,80.084229
2018-09-13T00:55:31.494Z,80.145264
2018-09-13T00:56:47.443Z,79.644775
2018-09-13T00:58:03.442Z,79.3396
2018-09-13T00:59:38.447Z,79.144287
2018-09-13T01:00:54.523Z,79.040527
2018-09-13T01:02:10.501Z,79.040527
2018-09-13T01:03:26.488Z,79.144287
2018-09-13T01:04:42.452Z,79.846191
2018-09-13T01:05:58.376Z,79.846191
2018-09-13T01:07:14.376Z,79.779053
2018-09-13T01:08:30.416Z,79.742432
2018-09-13T01:10:05.361Z,78.643799
2018-09-13T01:11:21.332Z,78.741455
2018-09-13T01:12:37.337Z,79.541016
2018-09-13T01:14:12.194Z,78.90625
2018-09-13T01:15:29.093Z,78.601074
2018-09-13T01:17:02.919Z,77.703857
2018-09-13T01:18:18.956Z,77.13623
2018-09-13T01:19:34.870Z,77.23999
2018-09-13T01:20:50.905Z,77.539062
2018-09-13T01:22:24.721Z,76.098633
2018-09-13T01:23:40.812Z,76.098633
2018-09-13T01:24:56.910Z,77.001953
2018-09-13T01:26:12.965Z,77.13623
2018-09-13T01:27:28.910Z,77.441406
2018-09-13T01:28:44.858Z,78.039551
2018-09-13T01:30:00.793Z,78.240967
2018-09-13T01:31:16.868Z,78.643799
2018-09-13T01:32:32.913Z,78.442383
2018-09-13T01:33:48.875Z,79.382324
2018-09-13T01:35:04.788Z,79.443359
2018-09-13T01:36:20.822Z,79.742432
2018-09-13T01:37:36.723Z,79.040527
2018-09-13T01:38:52.692Z,79.3396
2018-09-13T01:40:08.734Z,79.040527
2018-09-13T01:41:24.758Z,77.539062
2018-09-13T01:42:40.684Z,78.90625
2018-09-13T01:43:56.783Z,78.601074
2018-09-13T01:45:12.804Z,78.601074
2018-09-13T01:46:28.899Z,78.601074
2018-09-13T01:47:44.837Z,78.643799
2018-09-13T01:49:00.849Z,79.241943
2018-09-13T01:50:16.758Z,78.405762
2018-09-13T01:51:51.787Z,78.405762
2018-09-13T01:53:25.652Z,78.405762
2018-09-13T01:54:41.614Z,78.80249
2018-09-13T01:55:57.721Z,78.90625
2018-09-13T01:57:13.682Z,79.302979
2018-09-13T01:58:29.637Z,79.504395
2018-09-13T01:59:45.586Z,80.145264
2018-09-13T02:01:01.507Z,80.145264
2018-09-13T02:02:17.547Z,80.24292
2018-09-13T02:03:33.520Z,80.041504
2018-09-13T02:04:49.595Z,80.505371
2018-09-13T02:06:05.680Z,79.907227
2018-09-13T02:07:21.617Z,79.803467
2018-09-13T02:08:37.653Z,79.846191
2018-09-13T02:09:53.586Z,80.383301
2018-09-13T02:11:09.671Z,80.584717
2018-09-13T02:12:25.599Z,80.786133
2018-09-13T02:13:41.553Z,81.085205
2018-09-13T02:14:57.550Z,81.085205
2018-09-13T02:16:13.659Z,81.182861
2018-09-13T02:17:29.693Z,80.847168
2018-09-13T02:18:45.674Z,80.383301
2018-09-13T02:20:01.799Z,80.383301
2018-09-13T02:21:17.749Z,80.279541
2018-09-13T02:22:33.665Z,80.084229
2018-09-13T02:23:49.622Z,79.882812
2018-09-13T02:25:05.596Z,80.041504
2018-09-13T02:26:21.605Z,80.181885
2018-09-13T02:27:37.622Z,80.682373
2018-09-13T02:28:53.556Z,80.682373
2018-09-13T02:30:09.650Z,80.786133
2018-09-13T02:31:25.771Z,80.786133
2018-09-13T02:32:41.708Z,81.286621
2018-09-13T02:33:57.605Z,82.324219
2018-09-13T02:35:13.591Z,82.666016
2018-09-13T02:36:29.662Z,82.525635
2018-09-13T02:37:45.812Z,82.025146
2018-09-13T02:39:02.012Z,82.122803
2018-09-13T02:40:18.039Z,81.92749
2018-09-13T02:41:33.977Z,82.025146
2018-09-13T02:42:49.921Z,81.92749
2018-09-13T02:44:23.806Z,81.524658
2018-09-13T02:45:39.785Z,81.726074
2018-09-13T02:46:55.782Z,82.4646
2018-09-13T02:48:11.695Z,81.622314
2018-09-13T02:49:27.760Z,81.420898
2018-09-13T02:51:01.639Z,81.762695
2018-09-13T02:52:17.652Z,81.622314
2018-09-13T02:53:33.691Z,81.726074
2018-09-13T02:54:49.609Z,81.726074
2018-09-13T02:56:05.583Z,81.82373
2018-09-13T02:57:39.389Z,81.622314
2018-09-13T02:58:55.315Z,82.025146
2018-09-13T03:00:11.255Z,81.92749
2018-09-13T03:01:27.160Z,81.92749
2018-09-13T03:02:43.189Z,81.286621
2018-09-13T03:03:59.184Z,81.420898
2018-09-13T03:05:15.231Z,80.981445
2018-09-13T03:06:31.310Z,80.883789
2018-09-13T03:07:48.284Z,80.682373
2018-09-13T03:09:04.493Z,80.883789
2018-09-13T03:10:20.419Z,80.981445
2018-09-13T03:11:36.338Z,81.121826
2018-09-13T03:12:52.320Z,81.323242
2018-09-13T03:14:08.230Z,81.121826
2018-09-13T03:15:43.074Z,81.323242
2018-09-13T03:17:16.960Z,80.981445
2018-09-13T03:18:32.877Z,81.726074
2018-09-13T03:19:48.877Z,81.82373
2018-09-13T03:21:23.705Z,81.323242
2018-09-13T03:22:39.732Z,81.121826
2018-09-13T03:23:55.756Z,80.822754
2018-09-13T03:26:53.096Z,81.02417
2018-09-13T03:28:27.006Z,80.718994
2018-09-13T03:29:42.980Z,80.523682
2018-09-13T03:31:16.841Z,81.02417
2018-09-13T03:33:57.162Z,81.02417
2018-09-13T03:35:32.043Z,81.665039
2018-09-13T03:36:48.061Z,81.463623
2018-09-13T03:38:04.737Z,81.262207
2018-09-13T03:39:20.728Z,81.158447
2018-09-13T03:40:36.875Z,81.02417
2018-09-13T03:41:52.905Z,81.02417
2018-09-13T03:43:08.947Z,81.359863
2018-09-13T03:55:18.333Z,80.560303
2018-09-13T03:56:34.344Z,80.859375
2018-09-13T03:57:50.398Z,81.097412
2018-09-13T03:59:06.490Z,81.500244
2018-09-13T04:00:41.333Z,81.561279
2018-09-13T04:02:15.161Z,81.359863
2018-09-13T04:03:31.379Z,80.761719
2018-09-13T04:04:47.345Z,81.298828
2018-09-13T04:06:03.387Z,81.500244
2018-09-13T04:07:19.493Z,81.201172
2018-09-13T04:08:34.570Z,80.761719
2018-09-13T04:10:08.496Z,80.963135
2018-09-13T04:11:43.447Z,80.999756
2018-09-13T04:12:59.412Z,81.70166
2018-09-13T04:14:15.497Z,81.402588
2018-09-13T04:15:31.450Z,81.402588
2018-09-13T04:16:47.434Z,80.859375
2018-09-13T04:18:03.375Z,81.097412
2018-09-13T04:19:19.342Z,81.097412
2018-09-13T04:20:35.324Z,81.097412
2018-09-13T04:21:51.305Z,80.761719
2018-09-13T04:23:07.311Z,80.700684
2018-09-13T04:24:23.459Z,80.895996
2018-09-13T04:25:39.429Z,81.060791
2018-09-13T04:26:55.419Z,80.999756
2018-09-13T04:28:29.303Z,81.402588
2018-09-13T04:29:45.322Z,80.999756
2018-09-13T04:31:01.316Z,81.298828
2018-09-13T04:32:17.305Z,80.79834
2018-09-13T04:33:33.327Z,80.79834
2018-09-13T04:34:49.402Z,80.596924
2018-09-13T04:36:23.244Z,81.536865
2018-09-13T04:37:39.347Z,81.439209
2018-09-13T04:39:13.173Z,81.439209
2018-09-13T04:40:47.215Z,81.298828
2018-09-13T04:42:03.164Z,80.999756
2018-09-13T04:43:19.217Z,80.596924
2018-09-13T04:44:53.105Z,80.999756
2018-09-13T04:46:09.139Z,80.700684
2018-09-13T04:47:44.107Z,80.999756
2018-09-13T04:49:00.105Z,80.596924
2018-09-13T04:50:16.065Z,81.036377
2018-09-13T04:51:32.004Z,81.439209
2018-09-13T04:52:47.989Z,81.201172
2018-09-13T04:54:03.982Z,81.036377
2018-09-13T04:55:19.955Z,80.895996
2018-09-13T04:56:36.066Z,81.341553
2018-09-13T04:58:09.999Z,81.341553
2018-09-13T04:59:26.183Z,81.140137
2018-09-13T05:01:01.082Z,80.834961
2018-09-13T05:02:35.088Z,80.834961
2018-09-13T05:05:32.067Z,81.036377
2018-09-13T05:07:05.963Z,80.633545
2018-09-13T05:08:41.002Z,80.334473
2018-09-13T05:09:57.181Z,80.334473
2018-09-13T05:11:33.870Z,80.334473
2018-09-13T05:13:27.225Z,80.834961
2018-09-13T05:16:24.169Z,81.274414
2018-09-13T05:44:38.466Z,80.096436
2018-09-13T05:46:30.114Z,79.693604
2018-09-13T05:48:21.887Z,79.595947
2018-09-13T05:49:37.978Z,79.89502
2018-09-13T05:51:30.714Z,80.737305
2018-09-13T05:53:04.554Z,80.737305
2018-09-13T05:54:38.403Z,80.194092
2018-09-13T05:55:54.534Z,80.633545
2018-09-13T05:57:10.549Z,80.737305
2018-09-13T05:58:45.451Z,80.737305
2018-09-13T06:00:01.514Z,80.297852
2018-09-13T06:01:35.336Z,79.992676
2018-09-13T06:03:09.262Z,80.334473
2018-09-13T06:04:25.301Z,80.633545
2018-09-13T06:06:00.140Z,81.140137
2018-09-13T06:07:16.147Z,80.834961
2018-09-13T06:08:32.250Z,81.036377
2018-09-13T06:10:07.197Z,81.439209
2018-09-13T06:11:23.174Z,81.640625
2018-09-13T06:12:58.026Z,81.341553
2018-09-13T06:14:13.968Z,80.535889
2018-09-13T06:15:30.023Z,80.834961
2018-09-13T06:17:03.962Z,80.895996
2018-09-13T06:18:37.798Z,81.341553
2018-09-13T06:20:11.765Z,81.640625
2018-09-13T06:21:27.743Z,81.140137
2018-09-13T06:22:43.796Z,81.036377
2018-09-13T06:23:59.766Z,81.298828
2018-09-13T06:25:15.859Z,81.298828
2018-09-13T06:26:31.827Z,81.097412
2018-09-13T06:28:05.683Z,80.596924
2018-09-13T06:29:21.666Z,80.700684
2018-09-13T06:30:38.668Z,80.657959
2018-09-13T06:31:54.639Z,80.26123
2018-09-13T06:33:10.631Z,80.456543
2018-09-13T06:34:26.580Z,80.059814
2018-09-13T06:36:01.455Z,80.358887
2018-09-13T06:37:35.435Z,80.456543
2018-09-13T06:39:09.362Z,80.358887
2018-09-13T06:40:25.382Z,80.761719
2018-09-13T06:42:00.391Z,80.859375
2018-09-13T06:43:16.466Z,80.859375
2018-09-13T06:44:50.435Z,80.157471
2018-09-13T06:46:06.548Z,79.718018
2018-09-13T06:47:22.506Z,80.12085
2018-09-13T06:48:38.485Z,81.262207
2018-09-13T06:50:13.332Z,80.322266
2018-09-13T06:51:47.324Z,80.322266
2018-09-13T06:53:03.257Z,80.419922
2018-09-13T06:54:37.113Z,80.322266
2018-09-13T06:55:53.304Z,79.956055
2018-09-13T06:57:09.406Z,80.12085
2018-09-13T06:58:25.392Z,80.419922
2018-09-13T06:59:59.280Z,79.919434
2018-09-13T07:01:52.234Z,80.322266
2018-09-13T07:03:27.135Z,79.217529
2018-09-13T07:04:43.110Z,79.077148
2018-09-13T07:07:39.918Z,79.180908
2018-09-13T07:08:55.905Z,78.57666
2018-09-13T07:10:11.975Z,78.57666
2018-09-13T07:37:05.062Z,76.239014
2018-09-13T07:38:21.135Z,76.239014
2018-09-13T07:39:55.085Z,76.837158
2018-09-13T07:41:11.083Z,76.702881
2018-09-13T07:42:27.029Z,77.001953
2018-09-13T07:44:00.884Z,76.800537
2018-09-13T07:45:16.854Z,76.367188
2018-09-13T07:46:32.883Z,76.464844
2018-09-13T07:48:07.783Z,75.964355
2018-09-13T07:49:23.808Z,75.726318
2018-09-13T07:50:57.791Z,76.165771
2018-09-13T07:52:13.910Z,76.367188
2018-09-13T07:53:29.921Z,76.263428
2018-09-13T07:54:45.875Z,76.5625
2018-09-13T07:56:01.833Z,75.830078
2018-09-13T07:57:17.753Z,75.024414
2018-09-13T07:58:33.699Z,75.061035
2018-09-13T08:00:07.530Z,75.561523
2018-09-13T08:01:23.470Z,75.964355
2018-09-13T08:02:39.512Z,76.062012
2018-09-13T08:03:55.554Z,75.726318
2018-09-13T08:05:11.565Z,74.627686
2018-09-13T08:06:27.544Z,74.725342
2018-09-13T08:07:43.591Z,74.627686
2018-09-13T08:08:59.841Z,75.726318
2018-09-13T08:10:15.808Z,75.689697
2018-09-13T08:11:31.792Z,74.853516
2018-09-13T08:12:47.814Z,73.956299
2018-09-13T08:14:03.994Z,73.358154
2018-09-13T08:15:37.878Z,72.821045
2018-09-13T08:16:54.144Z,73.254395
2018-09-13T08:18:10.163Z,72.558594
2018-09-13T08:19:44.014Z,72.424316
2018-09-13T08:21:00.087Z,72.454834
2018-09-13T08:22:16.031Z,72.857666
2018-09-13T08:23:32.084Z,72.521973
2018-09-13T08:24:48.240Z,73.022461
2018-09-13T08:26:04.173Z,72.924805
2018-09-13T08:27:20.291Z,73.486328
2018-09-13T08:28:36.282Z,72.589111
2018-09-13T08:29:52.240Z,72.888184
2018-09-13T08:31:08.271Z,72.753906
2018-09-13T08:32:24.325Z,72.454834
2018-09-13T08:33:59.215Z,72.052002
2018-09-13T08:35:15.188Z,71.990967
2018-09-13T08:36:49.159Z,72.088623
2018-09-13T08:38:05.101Z,72.98584
2018-09-13T08:39:21.161Z,72.485352
2018-09-13T08:40:37.148Z,72.888184
2018-09-13T08:41:53.109Z,71.887207
2018-09-13T08:43:09.155Z,72.619629
2018-09-13T08:44:25.100Z,74.023438
2018-09-13T08:45:41.162Z,73.486328
2018-09-13T08:46:57.321Z,73.223877
2018-09-13T08:48:13.430Z,73.455811
2018-09-13T08:49:29.407Z,74.157715
2018-09-13T08:51:03.312Z,74.255371
2018-09-13T08:52:19.250Z,74.157715
2018-09-13T08:53:54.227Z,74.554443
2018-09-13T08:55:10.238Z,73.522949
2018-09-13T08:56:26.171Z,73.822021
2018-09-13T08:57:42.213Z,73.754883
2018-09-13T08:58:58.340Z,73.522949
2018-09-13T09:00:14.324Z,72.821045
2018-09-13T09:01:30.368Z,73.120117
2018-09-13T09:02:46.361Z,73.956299
2018-09-13T09:04:02.327Z,74.688721
2018-09-13T09:05:36.267Z,75.457764
2018-09-13T09:06:52.218Z,74.957275
2018-09-13T09:08:08.246Z,75.219727
2018-09-13T09:09:24.215Z,75.018311
2018-09-13T09:10:40.155Z,75.018311
2018-09-13T09:11:56.281Z,75.12207
2018-09-13T09:13:12.213Z,75.616455
2018-09-13T09:14:28.188Z,75.317383
2018-09-13T09:15:44.374Z,75.756836
2018-09-13T09:17:00.437Z,75.921631
2018-09-13T09:18:16.515Z,75.219727
2018-09-13T09:19:32.435Z,75.421143
2018-09-13T09:20:48.401Z,75.482178
2018-09-13T09:22:04.535Z,74.749756
2018-09-13T09:23:20.472Z,75.048828
2018-09-13T09:24:36.484Z,74.450684
2018-09-13T09:26:10.607Z,75.616455
2018-09-13T09:27:26.576Z,76.116943
2018-09-13T09:28:42.629Z,75.482178
2018-09-13T09:30:16.508Z,75.146484
2018-09-13T09:31:32.581Z,74.810791
2018-09-13T09:33:06.454Z,74.316406
2018-09-13T09:34:22.464Z,73.913574
2018-09-13T09:35:57.355Z,74.414062
2018-09-13T09:37:13.436Z,74.017334
2018-09-13T09:38:29.397Z,73.577881
2018-09-13T09:39:45.524Z,73.577881
2018-09-13T09:41:01.536Z,73.577881
2018-09-13T09:42:17.655Z,73.278809
2018-09-13T09:43:51.547Z,73.181152
2018-09-13T09:45:07.638Z,72.650146
2018-09-13T09:46:41.617Z,71.850586
2018-09-13T09:48:15.688Z,72.546387
2018-09-13T09:49:31.551Z,71.948242
2018-09-13T09:50:47.622Z,71.551514
2018-09-13T09:52:04.022Z,71.551514
2018-09-13T09:53:20.141Z,70.721436
2018-09-13T09:54:36.122Z,70.52002
2018-09-13T09:55:52.090Z,70.751953
2018-09-13T09:57:08.148Z,70.788574
2018-09-13T09:58:42.084Z,70.953369
2018-09-13T09:59:58.035Z,70.52002
2018-09-13T10:01:14.178Z,69.32373
2018-09-13T10:02:30.181Z,70.355225
2018-09-13T10:03:46.232Z,70.288086
2018-09-13T10:05:02.337Z,71.087646
2018-09-13T10:06:18.438Z,70.526123
2018-09-13T10:07:34.528Z,70.751953
2018-09-13T10:08:50.647Z,70.159912
2018-09-13T10:10:06.560Z,69.360352
2018-09-13T10:11:22.498Z,68.859863
2018-09-13T10:12:38.448Z,69.195557
2018-09-13T10:13:54.585Z,68.164062
2018-09-13T10:15:10.602Z,68.231201
2018-09-13T10:16:26.576Z,67.5354
2018-09-13T10:17:42.534Z,67.663574
2018-09-13T10:18:58.578Z,67.5354
2018-09-13T10:20:14.645Z,68.066406
2018-09-13T10:21:30.593Z,68.164062
2018-09-13T10:22:46.778Z,68.560791
2018-09-13T10:24:02.741Z,68.365479
2018-09-13T10:25:18.719Z,69.458008
2018-09-13T10:26:34.682Z,68.066406
2018-09-13T10:28:08.559Z,67.834473
2018-09-13T10:29:25.830Z,67.468262
2018-09-13T10:30:41.709Z,65.869141
2018-09-13T10:31:57.675Z,67.498779
2018-09-13T10:33:13.667Z,67.468262
2018-09-13T10:34:29.697Z,65.142822
2018-09-13T10:36:03.542Z,64.874268
2018-09-13T10:37:19.600Z,65.771484
2018-09-13T10:38:35.636Z,65.539551
2018-09-13T10:39:51.751Z,63.916016
2018-09-13T10:41:07.839Z,64.215088
2018-09-13T10:42:23.812Z,64.544678
2018-09-13T10:43:39.715Z,63.916016
2018-09-13T10:44:55.757Z,62.854004
2018-09-13T10:46:11.830Z,62.524414
2018-09-13T10:47:27.814Z,61.895752
2018-09-13T10:49:01.933Z,61.669922
2018-09-13T10:50:17.921Z,62.164307
2018-09-13T10:51:33.989Z,62.365723
2018-09-13T10:53:07.920Z,61.566162
2018-09-13T10:54:24.005Z,62.591553
2018-09-13T10:55:40.268Z,63.690186
2018-09-13T10:57:14.082Z,64.782715
2018-09-13T10:58:30.058Z,64.355469
2018-09-13T10:59:46.161Z,64.025879
2018-09-13T11:01:02.278Z,64.324951
2018-09-13T11:02:18.252Z,63.891602
2018-09-13T11:03:52.130Z,64.093018
2018-09-13T11:05:08.115Z,63.62915
2018-09-13T11:06:42.156Z,64.221191
2018-09-13T11:07:58.105Z,63.330078
2018-09-13T11:09:14.151Z,61.535645
2018-09-13T11:10:48.116Z,61.737061
2018-09-13T11:12:21.983Z,63.031006
2018-09-13T11:13:37.983Z,61.309814
2018-09-13T11:14:53.932Z,62.103271
2018-09-13T11:16:09.957Z,63.031006
2018-09-13T11:17:25.952Z,63.031006
2018-09-13T11:18:42.014Z,62.902832
2018-09-13T11:19:58.125Z,61.834717
2018-09-13T11:21:14.218Z,62.036133
2018-09-13T11:22:30.368Z,61.938477
2018-09-13T11:23:46.304Z,62.82959
2018-09-13T11:25:02.288Z,63.000488
2018-09-13T11:26:18.335Z,60.913086
2018-09-13T11:27:34.650Z,60.81543
2018-09-13T11:28:50.575Z,61.212158
2018-09-13T11:30:06.694Z,61.376953
2018-09-13T11:31:22.674Z,60.784912
2018-09-13T11:32:39.718Z,61.181641
2018-09-13T11:33:55.863Z,62.072754
2018-09-13T11:35:11.907Z,62.341309
2018-09-13T11:36:27.861Z,61.749268
2018-09-13T11:38:02.913Z,61.151123
2018-09-13T11:39:18.846Z,60.186768
2018-09-13T11:40:35.108Z,61.480713
2018-09-13T11:41:50.968Z,62.207031
2018-09-13T11:43:07.028Z,61.706543
2018-09-13T11:44:23.140Z,61.877441
2018-09-13T11:45:39.082Z,61.877441
2018-09-13T11:46:55.098Z,60.583496
2018-09-13T11:48:11.194Z,60.186768
2018-09-13T11:49:27.293Z,58.898926
2018-09-13T11:50:43.274Z,59.265137
2018-09-13T11:51:59.263Z,59.661865
2018-09-13T11:53:15.450Z,59.16748
2018-09-13T11:54:31.556Z,60.101318
2018-09-13T11:55:47.595Z,59.112549
2018-09-13T11:57:03.610Z,59.405518
2018-09-13T11:58:19.626Z,58.813477
2018-09-13T11:59:35.578Z,59.112549
2018-09-13T12:00:51.581Z,57.525635
2018-09-13T12:02:07.798Z,58.612061
2018-09-13T12:03:23.833Z,58.514404
2018-09-13T12:04:39.849Z,58.685303
2018-09-13T12:05:55.885Z,58.587646
2018-09-13T12:07:11.870Z,59.875488
2018-09-13T12:08:27.865Z,60.430908
2018-09-13T12:09:44.002Z,61.022949
2018-09-13T12:10:59.965Z,60.827637
2018-09-13T12:12:15.999Z,60.723877
2018-09-13T12:13:32.072Z,60.101318
2018-09-13T12:14:48.151Z,60.070801
2018-09-13T12:16:22.079Z,59.545898
2018-09-13T12:17:38.149Z,58.856201
2018-09-13T12:18:54.287Z,58.38623
2018-09-13T12:20:10.343Z,59.179688
2018-09-13T12:21:26.317Z,59.875488
2018-09-13T12:22:42.334Z,60.723877
2018-09-13T12:23:58.382Z,60.723877
2018-09-13T12:25:14.357Z,60.302734
2018-09-13T12:26:30.361Z,59.875488
2018-09-13T12:27:46.367Z,59.47876
2018-09-13T12:29:02.423Z,59.906006
2018-09-13T12:30:18.528Z,60.797119
2018-09-13T12:31:34.550Z,60.894775
2018-09-13T12:32:50.507Z,61.688232
2018-09-13T12:34:25.511Z,62.640381
2018-09-13T12:35:41.618Z,62.542725
2018-09-13T12:36:57.570Z,62.939453
2018-09-13T12:38:31.492Z,63.134766
2018-09-13T12:39:47.649Z,63.037109
2018-09-13T12:41:03.663Z,63.208008
2018-09-13T12:42:19.673Z,61.956787
2018-09-13T12:43:53.679Z,62.054443
2018-09-13T12:45:09.716Z,61.260986
2018-09-13T12:46:25.742Z,60.766602
2018-09-13T12:47:41.757Z,62.652588
2018-09-13T12:49:15.663Z,61.627197
2018-09-13T12:50:31.721Z,61.627197
2018-09-13T12:51:47.848Z,61.92627
2018-09-13T12:53:03.991Z,61.627197
2018-09-13T12:54:20.088Z,62.652588
2018-09-13T12:55:36.022Z,63.574219
2018-09-13T12:57:11.007Z,64.794922
2018-09-13T12:58:27.062Z,64.300537
2018-09-13T12:59:43.314Z,65.124512
2018-09-13T13:01:18.262Z,66.375732
2018-09-13T13:02:52.204Z,65.222168
2018-09-13T13:04:08.423Z,64.624023
2018-09-13T13:05:24.335Z,64.923096
2018-09-13T13:06:40.381Z,65.386963
2018-09-13T13:07:56.462Z,64.49585
2018-09-13T13:09:12.640Z,63.800049
2018-09-13T13:10:28.704Z,63.543701
2018-09-13T13:11:44.692Z,62.255859
2018-09-13T13:13:00.609Z,62.878418
2018-09-13T13:14:16.915Z,63.40332
2018-09-13T13:15:32.990Z,63.604736
2018-09-13T13:17:06.946Z,63.903809
2018-09-13T13:18:24.219Z,62.780762
2018-09-13T13:19:40.172Z,63.40332
2018-09-13T13:20:56.210Z,64.428711
2018-09-13T13:22:12.272Z,65.454102
2018-09-13T13:23:28.205Z,64.825439
2018-09-13T13:24:44.336Z,64.556885
2018-09-13T13:26:00.448Z,65.582275
2018-09-13T13:27:16.552Z,65.881348
2018-09-13T13:28:33.464Z,64.727783
2018-09-13T13:29:49.558Z,64.331055
2018-09-13T13:31:05.573Z,64.001465
2018-09-13T13:32:21.701Z,63.476562
2018-09-13T13:33:37.818Z,62.750244
2018-09-13T13:34:53.762Z,62.097168
2018-09-13T13:36:09.821Z,59.222412
2018-09-13T13:37:25.854Z,59.490967
2018-09-13T13:39:01.003Z,58.795166
2018-09-13T13:40:16.996Z,60.778809
2018-09-13T13:41:32.986Z,59.790039
2018-09-13T13:42:49.143Z,59.686279
2018-09-13T13:44:23.014Z,58.599854
2018-09-13T13:45:39.040Z,60.113525
2018-09-13T13:46:55.029Z,60.577393
2018-09-13T13:48:11.185Z,59.265137
2018-09-13T13:49:27.289Z,58.795166
2018-09-13T13:50:43.119Z,59.295654
2018-09-13T13:52:17.074Z,58.795166
2018-09-13T13:53:33.297Z,58.868408
2018-09-13T13:54:49.409Z,58.447266
2018-09-13T13:56:05.503Z,59.124756
2018-09-13T13:57:21.504Z,58.526611
2018-09-13T13:58:55.420Z,57.611084
2018-09-13T14:00:11.836Z,57.354736
2018-09-13T14:01:27.892Z,56.933594
2018-09-13T14:02:43.948Z,56.414795
2018-09-13T14:04:00.177Z,56.481934
2018-09-13T14:05:16.285Z,51.373291
2018-09-13T14:06:32.394Z,48.980713
2018-09-13T14:07:48.716Z,46.905518
2018-09-13T14:09:04.873Z,46.191406
2018-09-13T14:10:21.077Z,46.148682
2018-09-13T14:11:37.262Z,44.647217
2018-09-13T14:13:11.208Z,43.817139
2018-09-13T14:14:27.378Z,41.802979
2018-09-13T14:16:02.345Z,39.996338
2018-09-13T14:17:36.234Z,38.092041
2018-09-13T14:18:52.512Z,36.236572
2018-09-13T14:20:08.651Z,33.868408
2018-09-13T14:21:24.654Z,32.226562
2018-09-13T14:22:40.776Z,30.981445
2018-09-13T14:23:56.827Z,30.773926
2018-09-13T14:25:31.020Z,29.760742
2018-09-13T14:27:05.019Z,31.097412
2018-09-13T14:28:21.062Z,30.786133
2018-09-13T14:29:55.257Z,31.317139
2018-09-13T14:31:29.058Z,30.523682
2018-09-13T14:32:45.468Z,30.523682
2018-09-13T14:34:01.533Z,30.151367
2018-09-13T14:35:17.640Z,29.748535
2018-09-13T14:36:33.750Z,29.162598
2018-09-13T14:37:49.819Z,28.527832
2018-09-13T14:39:06.163Z,28.747559
2018-09-13T14:40:40.336Z,30.908203
2018-09-13T14:41:56.375Z,31.768799
2018-09-13T14:43:12.501Z,37.219238
2018-09-13T14:44:28.615Z,39.459229
2018-09-13T14:45:44.725Z,40.899658
2018-09-13T14:47:00.657Z,41.436768
2018-09-13T14:48:16.650Z,42.047119
2018-09-13T14:49:32.751Z,42.883301
2018-09-13T14:50:48.810Z,39.306641
2018-09-13T14:52:24.000Z,32.501221
2018-09-13T14:53:39.957Z,30.053711
2018-09-13T14:54:56.045Z,29.943848
2018-09-13T14:56:30.002Z,28.320312
2018-09-13T14:57:46.093Z,27.502441
2018-09-13T14:59:20.068Z,28.112793
2018-09-13T15:00:35.979Z,27.819824
2018-09-13T15:01:52.186Z,27.929688
2018-09-13T15:03:08.160Z,27.709961
2018-09-13T15:04:24.256Z,27.807617
2018-09-13T15:05:40.336Z,28.399658
2018-09-13T15:08:38.150Z,29.370117
2018-09-13T15:10:12.083Z,30.999756
2018-09-13T15:11:47.178Z,36.315918
2018-09-13T15:13:21.060Z,41.217041
2018-09-13T15:14:55.968Z,43.444824
2018-09-13T15:16:12.039Z,41.900635
2018-09-13T15:17:46.995Z,41.369629
2018-09-13T15:19:20.927Z,43.103027
2018-09-13T15:20:56.283Z,43.200684
2018-09-13T15:22:13.491Z,38.665771
2018-09-13T15:23:31.725Z,35.180664
2018-09-13T15:25:05.655Z,33.654785
2018-09-13T15:35:57.196Z,33.459473
2018-09-13T15:37:13.359Z,51.000977
2018-09-13T15:38:29.620Z,51.519775
2018-09-13T15:39:45.847Z,52.441406
2018-09-13T15:41:01.844Z,52.960205
2018-09-13T15:42:35.841Z,53.656006
2018-09-13T15:43:51.872Z,53.875732
2018-09-13T15:45:27.040Z,54.278564
2018-09-13T15:47:00.946Z,54.174805
2018-09-13T15:48:17.331Z,54.278564
2018-09-13T15:49:51.441Z,54.473877
2018-09-13T15:51:25.617Z,55.194092
2018-09-13T15:52:59.663Z,54.998779
2018-09-13T15:54:15.716Z,54.772949
2018-09-13T15:55:49.835Z,54.968262
2018-09-13T15:57:23.897Z,55.395508
2018-09-13T15:58:39.976Z,55.81665
2018-09-13T15:59:56.102Z,55.493164
2018-09-13T16:01:31.078Z,55.718994
2018-09-13T16:03:05.113Z,56.115723
2018-09-13T16:04:40.993Z,56.542969
2018-09-13T16:06:14.912Z,56.439209
2018-09-13T16:07:31.002Z,56.341553
2018-09-13T16:09:05.127Z,56.341553
2018-09-13T16:10:21.210Z,56.243896
2018-09-13T16:11:37.296Z,56.439209
2018-09-13T16:13:11.381Z,56.542969
2018-09-13T16:14:45.604Z,56.665039
2018-09-13T16:16:37.401Z,56.964111
2018-09-13T16:17:53.920Z,57.092285
2018-09-13T16:19:46.886Z,57.293701
2018-09-13T16:21:20.863Z,57.885742
2018-09-13T16:22:36.851Z,58.184814
2018-09-13T16:24:10.942Z,58.685303
2018-09-13T16:27:07.366Z,58.557129
2018-09-13T16:55:26.290Z,59.576416
2018-09-13T16:56:42.364Z,60.632324
2018-09-13T16:57:58.480Z,60.900879
2018-09-13T16:59:32.566Z,60.400391
2018-09-13T17:01:25.577Z,60.50415
2018-09-13T17:02:41.713Z,60.107422
2018-09-13T17:04:15.751Z,60.302734
2018-09-13T17:05:49.753Z,60.400391
2018-09-13T17:07:23.645Z,60.302734
2018-09-13T17:09:16.706Z,60.632324
2018-09-13T17:10:50.768Z,60.131836
2018-09-13T17:12:24.772Z,59.70459